createdAt,value
2018-07-03T00:00:24.895Z,20.64
2018-07-03T00:01:24.933Z,20.69
2018-07-03T00:02:24.744Z,20.58
2018-07-03T00:03:24.656Z,20.60
2018-07-03T00:04:24.592Z,20.66
2018-07-03T00:05:24.506Z,20.50
2018-07-03T00:06:24.458Z,20.58
2018-07-03T00:07:24.345Z,20.58
2018-07-03T00:10:06.646Z,20.56
2018-07-03T00:11:06.571Z,20.48
2018-07-03T00:12:06.487Z,20.57
2018-07-03T00:14:48.644Z,20.37
2018-07-03T00:15:48.559Z,20.37
2018-07-03T00:16:48.487Z,20.37
2018-07-03T00:17:48.425Z,20.22
2018-07-03T00:18:48.320Z,20.26
2018-07-03T00:19:48.250Z,20.23
2018-07-03T00:20:48.153Z,20.26
2018-07-03T00:21:48.090Z,20.12
2018-07-03T00:22:48.020Z,20.08
2018-07-03T00:23:47.933Z,20.04
2018-07-03T00:24:47.851Z,19.95
2018-07-03T00:25:47.784Z,19.92
2018-07-03T00:26:47.700Z,20.00
2018-07-03T00:27:47.637Z,20.08
2018-07-03T00:38:28.423Z,20.07
2018-07-03T00:39:28.318Z,20.16
2018-07-03T00:40:28.236Z,20.07
2018-07-03T00:41:28.161Z,20.16
2018-07-03T00:42:28.080Z,20.04
2018-07-03T00:43:29.022Z,19.89
2018-07-03T00:44:27.918Z,19.92
2018-07-03T00:45:27.863Z,19.89
2018-07-03T00:46:27.792Z,19.85
2018-07-03T00:47:27.706Z,19.79
2018-07-03T00:48:27.638Z,19.83
2018-07-03T00:49:27.547Z,19.72
2018-07-03T00:50:27.460Z,19.70
2018-07-03T00:51:27.384Z,19.60
2018-07-03T00:52:27.306Z,19.43
2018-07-03T00:53:27.255Z,19.46
2018-07-03T00:54:27.146Z,19.40
2018-07-03T00:55:27.085Z,19.38
2018-07-03T00:56:27.004Z,19.13
2018-07-03T00:59:09.164Z,18.99
2018-07-03T01:01:51.135Z,18.89
2018-07-03T01:02:51.070Z,18.93
2018-07-03T01:03:51.016Z,18.94
2018-07-03T01:04:50.913Z,18.89
2018-07-03T01:05:50.825Z,18.83
2018-07-03T01:08:32.632Z,18.62
2018-07-03T01:09:32.591Z,18.64
2018-07-03T01:10:32.488Z,18.66
2018-07-03T01:13:14.650Z,18.50
2018-07-03T01:14:14.592Z,18.68
2018-07-03T01:15:14.641Z,18.66
2018-07-03T01:16:14.409Z,18.53
2018-07-03T01:17:14.331Z,18.54
2018-07-03T01:18:14.252Z,18.51
2018-07-03T01:19:14.171Z,18.50
2018-07-03T01:20:14.119Z,18.50
2018-07-03T01:21:14.023Z,18.62
2018-07-03T01:36:54.591Z,18.44
2018-07-03T01:39:36.649Z,18.50
2018-07-03T01:40:36.587Z,18.54
2018-07-03T01:41:36.505Z,18.51
2018-07-03T01:42:36.427Z,18.41
2018-07-03T01:43:36.336Z,18.34
2018-07-03T01:44:36.268Z,18.32
2018-07-03T01:45:36.207Z,18.28
2018-07-03T01:46:36.127Z,18.29
2018-07-03T01:47:36.017Z,18.26
2018-07-03T01:48:35.958Z,18.31
2018-07-03T01:49:35.877Z,18.28
2018-07-03T01:50:35.823Z,18.17
2018-07-03T01:51:35.704Z,18.26
2018-07-03T01:52:35.635Z,18.16
2018-07-03T01:53:35.556Z,18.11
2018-07-03T01:56:17.676Z,18.05
2018-07-03T01:57:17.583Z,18.10
2018-07-03T02:07:58.289Z,17.89
2018-07-03T02:08:58.176Z,17.91
2018-07-03T02:10:00.116Z,17.91
2018-07-03T02:10:58.025Z,17.92
2018-07-03T02:11:57.984Z,17.98
2018-07-03T02:12:57.875Z,17.83
2018-07-03T02:13:57.792Z,17.81
2018-07-03T02:14:57.697Z,17.81
2018-07-03T02:15:57.622Z,17.81
2018-07-03T02:16:57.569Z,17.86
2018-07-03T02:17:57.478Z,17.73
2018-07-03T02:18:57.381Z,17.73
2018-07-03T02:19:57.315Z,17.68
2018-07-03T02:20:57.225Z,17.63
2018-07-03T02:21:57.175Z,17.55
2018-07-03T02:22:57.081Z,17.58
2018-07-03T02:23:56.996Z,17.53
2018-07-03T02:24:56.910Z,17.58
2018-07-03T02:25:56.842Z,17.60
2018-07-03T02:26:56.765Z,17.57
2018-07-03T02:27:56.696Z,17.55
2018-07-03T02:28:56.617Z,17.49
2018-07-03T02:29:56.520Z,17.53
2018-07-03T02:30:56.440Z,17.38
2018-07-03T02:31:56.426Z,17.38
2018-07-03T02:32:56.300Z,17.28
2018-07-03T02:33:56.236Z,17.32
2018-07-03T02:34:56.131Z,17.28
2018-07-03T02:35:56.065Z,17.27
2018-07-03T02:36:55.972Z,17.32
2018-07-03T02:37:55.910Z,17.24
2018-07-03T02:38:55.808Z,17.24
2018-07-03T02:39:55.760Z,17.36
2018-07-03T02:40:55.656Z,17.25
2018-07-03T02:41:55.589Z,17.22
2018-07-03T02:42:55.517Z,17.18
2018-07-03T02:43:55.422Z,17.21
2018-07-03T02:44:55.335Z,17.14
2018-07-03T02:45:55.270Z,17.17
2018-07-03T02:46:55.180Z,17.12
2018-07-03T02:47:55.153Z,17.12
2018-07-03T02:48:55.032Z,17.14
2018-07-03T02:49:54.953Z,17.12
2018-07-03T02:50:54.865Z,17.07
2018-07-03T02:51:54.785Z,17.00
2018-07-03T02:52:54.715Z,17.03
2018-07-03T02:53:54.669Z,16.98
2018-07-03T02:54:54.551Z,16.88
2018-07-03T02:55:54.490Z,16.90
2018-07-03T02:56:54.404Z,16.96
2018-07-03T02:57:54.345Z,16.88
2018-07-03T02:58:54.238Z,16.81
2018-07-03T02:59:54.192Z,16.75
2018-07-03T03:00:54.082Z,16.73
2018-07-03T03:01:54.005Z,16.73
2018-07-03T03:02:53.936Z,16.69
2018-07-03T03:03:53.845Z,16.60
2018-07-03T03:04:53.772Z,16.57
2018-07-03T03:05:53.686Z,16.67
2018-07-03T03:06:53.658Z,16.55
2018-07-03T03:07:53.559Z,16.57
2018-07-03T03:08:53.443Z,16.60
2018-07-03T03:09:53.390Z,16.65
2018-07-03T03:10:53.368Z,16.59
2018-07-03T03:11:53.216Z,16.50
2018-07-03T03:12:53.142Z,16.62
2018-07-03T03:15:35.204Z,16.63
2018-07-03T03:16:35.102Z,16.60
2018-07-03T03:17:35.021Z,16.65
2018-07-03T03:18:34.961Z,16.57
2018-07-03T03:19:34.920Z,16.73
2018-07-03T03:20:34.835Z,16.91
2018-07-03T03:21:34.707Z,17.02
2018-07-03T03:22:34.660Z,17.05
2018-07-03T03:23:34.545Z,17.06
2018-07-03T03:24:34.488Z,17.17
2018-07-03T03:25:34.391Z,17.20
2018-07-03T03:26:34.339Z,17.28
2018-07-03T03:27:34.229Z,17.15
2018-07-03T03:28:34.167Z,17.20
2018-07-03T03:29:34.082Z,17.33
2018-07-03T03:30:35.013Z,17.42
2018-07-03T03:31:33.937Z,17.42
2018-07-03T03:34:16.180Z,17.38
2018-07-03T03:36:58.204Z,17.42
2018-07-03T03:37:58.109Z,17.45
2018-07-03T03:38:58.025Z,17.40
2018-07-03T03:39:57.958Z,17.45
2018-07-03T03:40:57.891Z,17.53
2018-07-03T03:41:57.787Z,17.46
2018-07-03T03:42:57.707Z,17.40
2018-07-03T03:45:39.702Z,17.55
2018-07-03T03:46:39.630Z,17.47
2018-07-03T03:47:39.525Z,17.53
2018-07-03T03:48:39.459Z,17.47
2018-07-03T03:49:39.374Z,17.55
2018-07-03T03:50:39.317Z,17.66
2018-07-03T03:51:39.208Z,17.62
2018-07-03T03:52:39.147Z,17.63
2018-07-03T03:53:39.074Z,17.60
2018-07-03T03:54:38.977Z,17.58
2018-07-03T03:55:38.900Z,17.60
2018-07-03T03:56:38.945Z,17.63
2018-07-03T03:57:38.738Z,17.60
2018-07-03T03:58:38.679Z,17.51
2018-07-03T03:59:38.578Z,17.49
2018-07-03T04:00:38.527Z,17.47
2018-07-03T04:01:38.420Z,17.45
2018-07-03T04:02:38.348Z,17.43
2018-07-03T04:03:38.283Z,17.43
2018-07-03T04:04:38.189Z,17.42
2018-07-03T04:05:38.112Z,17.57
2018-07-03T04:06:38.054Z,17.63
2018-07-03T04:07:37.981Z,17.62
2018-07-03T04:08:37.885Z,17.66
2018-07-03T04:09:37.789Z,17.63
2018-07-03T04:10:37.722Z,17.71
2018-07-03T04:11:37.645Z,17.65
2018-07-03T04:12:37.599Z,17.68
2018-07-03T04:13:37.483Z,17.66
2018-07-03T04:14:37.446Z,17.68
2018-07-03T04:15:37.319Z,17.74
2018-07-03T04:16:37.253Z,17.71
2018-07-03T04:17:37.163Z,17.74
2018-07-03T04:18:37.126Z,17.71
2018-07-03T04:19:37.000Z,17.71
2018-07-03T04:20:36.949Z,17.71
2018-07-03T04:21:36.850Z,17.76
2018-07-03T04:22:36.895Z,17.80
2018-07-03T04:23:36.728Z,17.71
2018-07-03T04:24:36.732Z,17.79
2018-07-03T04:25:36.523Z,17.83
2018-07-03T04:26:36.508Z,17.73
2018-07-03T04:27:36.382Z,17.73
2018-07-03T04:28:36.418Z,17.70
2018-07-03T04:29:36.235Z,17.70
2018-07-03T04:30:36.233Z,17.79
2018-07-03T04:31:36.080Z,17.81
2018-07-03T04:32:36.032Z,17.71
2018-07-03T04:33:35.913Z,17.68
2018-07-03T04:34:35.856Z,17.70
2018-07-03T04:35:35.767Z,17.76
2018-07-03T04:36:35.677Z,17.73
2018-07-03T04:37:35.591Z,17.84
2018-07-03T04:38:35.530Z,17.73
2018-07-03T04:39:35.457Z,17.94
2018-07-03T04:40:35.396Z,17.81
2018-07-03T04:41:35.271Z,17.79
2018-07-03T04:42:35.204Z,17.71
2018-07-03T04:43:35.132Z,17.70
2018-07-03T04:44:35.101Z,17.70
2018-07-03T04:45:34.970Z,17.65
2018-07-03T04:46:34.893Z,17.66
2018-07-03T04:47:34.803Z,17.66
2018-07-03T04:48:34.753Z,17.80
2018-07-03T04:49:34.680Z,17.71
2018-07-03T04:50:34.579Z,17.83
2018-07-03T04:51:34.492Z,17.71
2018-07-03T04:52:34.417Z,17.70
2018-07-03T04:53:34.329Z,17.62
2018-07-03T04:54:34.304Z,17.62
2018-07-03T04:55:34.189Z,17.63
2018-07-03T04:56:34.095Z,17.73
2018-07-03T04:57:34.020Z,17.92
2018-07-03T05:00:16.228Z,18.20
2018-07-03T05:01:16.133Z,18.36
2018-07-03T05:02:16.051Z,18.29
2018-07-03T05:03:16.012Z,18.31
2018-07-03T05:04:15.898Z,18.46
2018-07-03T05:05:15.918Z,18.46
2018-07-03T05:06:15.739Z,18.44
2018-07-03T05:08:57.706Z,18.57
2018-07-03T05:09:57.652Z,18.53
2018-07-03T05:10:57.584Z,18.50
2018-07-03T05:13:39.749Z,18.53
2018-07-03T05:14:39.656Z,18.54
2018-07-03T05:15:39.595Z,18.60
2018-07-03T05:16:41.513Z,18.62
2018-07-03T05:17:39.428Z,18.62
2018-07-03T05:20:21.240Z,18.64
2018-07-03T05:21:21.150Z,18.64
2018-07-03T05:22:21.091Z,18.62
2018-07-03T05:23:20.992Z,18.71
2018-07-03T05:24:20.918Z,18.65
2018-07-03T05:25:20.946Z,18.75
2018-07-03T05:26:20.818Z,18.78
2018-07-03T05:27:20.728Z,18.86
2018-07-03T05:28:20.607Z,18.79
2018-07-03T05:29:20.548Z,18.84
2018-07-03T05:30:20.438Z,18.84
2018-07-03T05:33:02.749Z,19.09
2018-07-03T05:34:02.798Z,18.97
2018-07-03T05:35:02.576Z,19.09
2018-07-03T05:36:02.575Z,19.09
2018-07-03T05:37:02.426Z,19.12
2018-07-03T05:38:02.369Z,19.15
2018-07-03T05:39:02.693Z,19.12
2018-07-03T05:41:44.226Z,19.06
2018-07-03T05:42:44.175Z,19.17
2018-07-03T05:43:44.080Z,19.21
2018-07-03T05:44:43.999Z,19.13
2018-07-03T05:45:43.915Z,19.15
2018-07-03T05:46:43.843Z,19.10
2018-07-03T05:47:43.770Z,19.15
2018-07-03T05:48:43.697Z,19.31
2018-07-03T05:49:43.587Z,19.43
2018-07-03T05:50:43.519Z,19.46
2018-07-03T05:51:43.435Z,19.62
2018-07-03T05:52:43.383Z,19.71
2018-07-03T05:53:43.303Z,19.82
2018-07-03T05:54:43.215Z,19.78
2018-07-03T05:55:43.126Z,19.83
2018-07-03T05:56:43.046Z,19.90
2018-07-03T05:57:42.966Z,19.89
2018-07-03T05:58:42.912Z,19.98
2018-07-03T05:59:42.806Z,19.94
2018-07-03T06:00:42.734Z,19.95
2018-07-03T06:10:06.784Z,20.35
2018-07-03T06:11:05.692Z,20.46
2018-07-03T06:13:47.727Z,20.44
2018-07-03T06:14:47.703Z,20.64
2018-07-03T06:15:47.569Z,20.68
2018-07-03T06:16:47.498Z,20.66
2018-07-03T06:17:47.427Z,20.72
2018-07-03T06:18:47.362Z,20.73
2018-07-03T06:19:47.292Z,20.79
2018-07-03T06:20:47.202Z,20.81
2018-07-03T06:21:47.099Z,20.93
2018-07-03T06:22:47.050Z,20.97
2018-07-03T06:23:46.951Z,21.00
2018-07-03T06:24:47.889Z,21.01
2018-07-03T06:25:46.811Z,21.12
2018-07-03T06:26:46.722Z,21.28
2018-07-03T06:27:46.647Z,21.42
2018-07-03T06:30:28.760Z,21.66
2018-07-03T06:31:28.663Z,21.71
2018-07-03T06:32:28.587Z,21.89
2018-07-03T06:33:28.514Z,22.05
2018-07-03T06:34:28.428Z,22.39
2018-07-03T06:35:28.387Z,23.39
2018-07-03T06:36:28.271Z,24.33
2018-07-03T06:37:28.376Z,25.09
2018-07-03T06:38:28.104Z,25.72
2018-07-03T06:39:28.035Z,26.39
2018-07-03T06:40:27.999Z,26.75
2018-07-03T06:41:27.884Z,27.21
2018-07-03T06:42:27.808Z,27.15
2018-07-03T06:43:27.736Z,27.01
2018-07-03T06:44:27.671Z,26.75
2018-07-03T06:45:27.604Z,27.15
2018-07-03T06:46:27.531Z,27.90
2018-07-03T06:47:27.450Z,28.15
2018-07-03T06:48:27.349Z,28.74
2018-07-03T06:49:27.279Z,28.03
2018-07-03T06:50:27.233Z,28.33
2018-07-03T06:51:27.147Z,28.87
2018-07-03T06:52:27.277Z,28.33
2018-07-03T06:55:09.254Z,29.54
2018-07-03T06:56:10.209Z,29.64
2018-07-03T06:57:09.111Z,29.94
2018-07-03T06:58:09.059Z,30.34
2018-07-03T06:59:08.976Z,30.15
2018-07-03T07:00:08.904Z,30.30
2018-07-03T07:01:08.870Z,29.55
2018-07-03T07:02:08.780Z,29.69
2018-07-03T07:03:08.678Z,29.71
2018-07-03T07:04:08.621Z,30.06
2018-07-03T07:05:08.563Z,29.85
2018-07-03T07:06:09.528Z,29.69
2018-07-03T07:07:08.390Z,29.88
2018-07-03T07:08:08.421Z,30.07
2018-07-03T07:09:08.460Z,30.06
2018-07-03T07:10:08.200Z,29.99
2018-07-03T07:23:31.029Z,30.42
2018-07-03T07:24:30.956Z,30.64
2018-07-03T07:25:30.868Z,29.74
2018-07-03T07:26:30.782Z,29.27
2018-07-03T07:27:30.749Z,29.27
2018-07-03T07:28:30.668Z,29.63
2018-07-03T07:29:30.596Z,29.52
2018-07-03T07:30:30.514Z,29.18
2018-07-03T07:33:12.862Z,30.72
2018-07-03T07:34:34.705Z,30.78
2018-07-03T07:35:12.636Z,28.72
2018-07-03T07:36:12.659Z,29.41
2018-07-03T07:37:12.565Z,29.27
2018-07-03T07:38:12.448Z,30.26
2018-07-03T07:39:12.368Z,30.94
2018-07-03T07:40:12.337Z,31.47
2018-07-03T07:41:12.274Z,30.11
2018-07-03T07:42:12.168Z,29.32
2018-07-03T07:43:12.097Z,29.94
2018-07-03T07:44:12.096Z,30.38
2018-07-03T07:45:11.997Z,29.95
2018-07-03T07:46:11.900Z,29.48
2018-07-03T07:47:11.841Z,29.51
2018-07-03T07:49:53.804Z,29.35
2018-07-03T07:52:35.805Z,30.86
2018-07-03T07:53:35.714Z,31.40
2018-07-03T07:54:35.640Z,31.85
2018-07-03T07:57:17.932Z,31.76
2018-07-03T08:01:52.305Z,32.07
2018-07-03T08:02:52.222Z,32.34
2018-07-03T08:03:52.124Z,32.43
2018-07-03T08:06:34.289Z,31.52
2018-07-03T08:07:34.312Z,28.98
2018-07-03T08:08:34.144Z,28.89
2018-07-03T08:09:34.128Z,29.97
2018-07-03T08:10:34.019Z,31.09
2018-07-03T08:11:33.971Z,31.47
2018-07-03T08:12:33.917Z,31.67
2018-07-03T08:13:33.856Z,30.91
2018-07-03T08:14:33.745Z,31.40
2018-07-03T08:15:33.694Z,31.78
2018-07-03T08:16:33.616Z,31.60
2018-07-03T08:19:15.813Z,32.34
2018-07-03T08:20:15.743Z,32.49
2018-07-03T08:21:15.694Z,32.49
2018-07-03T08:22:15.615Z,32.32
2018-07-03T08:23:15.589Z,32.65
2018-07-03T08:24:16.004Z,32.63
2018-07-03T08:25:15.395Z,32.17
2018-07-03T08:26:15.343Z,32.62
2018-07-03T08:27:15.267Z,32.62
2018-07-03T08:28:15.234Z,31.10
2018-07-03T08:29:15.117Z,31.57
2018-07-03T08:30:15.074Z,29.88
2018-07-03T08:31:14.992Z,29.39
2018-07-03T08:32:14.963Z,30.59
2018-07-03T08:33:14.894Z,31.22
2018-07-03T08:34:14.866Z,31.76
2018-07-03T08:35:14.752Z,32.59
2018-07-03T08:36:14.703Z,32.29
2018-07-03T08:37:14.608Z,32.78
2018-07-03T08:38:14.583Z,33.06
2018-07-03T08:39:14.474Z,33.38
2018-07-03T08:41:56.797Z,31.05
2018-07-03T08:42:56.795Z,31.25
2018-07-03T08:43:56.715Z,31.64
2018-07-03T08:44:56.591Z,31.85
2018-07-03T08:47:38.797Z,33.29
2018-07-03T08:48:38.746Z,32.95
2018-07-03T08:49:38.672Z,31.19
2018-07-03T08:52:20.809Z,32.77
2018-07-03T08:53:20.770Z,33.44
2018-07-03T08:54:20.706Z,33.66
2018-07-03T08:55:20.602Z,33.31
2018-07-03T08:56:20.530Z,33.47
2018-07-03T08:57:20.479Z,33.96
2018-07-03T08:58:20.447Z,34.19
2018-07-03T08:59:21.373Z,33.34
2018-07-03T09:00:20.283Z,33.40
2018-07-03T09:01:20.225Z,33.74
2018-07-03T09:02:20.176Z,34.31
2018-07-03T09:05:02.314Z,34.36
2018-07-03T09:07:44.310Z,33.70
2018-07-03T09:08:44.278Z,32.77
2018-07-03T09:09:44.190Z,31.79
2018-07-03T09:10:44.150Z,30.76
2018-07-03T09:11:44.061Z,30.46
2018-07-03T09:12:43.995Z,30.86
2018-07-03T09:13:43.934Z,31.12
2018-07-03T09:14:44.904Z,31.94
2018-07-03T09:15:43.839Z,32.50
2018-07-03T09:16:43.741Z,32.80
2018-07-03T09:17:43.668Z,32.61
2018-07-03T09:18:43.652Z,32.39
2018-07-03T09:19:43.539Z,32.69
2018-07-03T09:20:43.475Z,33.09
2018-07-03T09:21:43.443Z,33.49
2018-07-03T09:22:43.356Z,33.06
2018-07-03T09:23:43.367Z,32.84
2018-07-03T09:26:25.956Z,32.49
2018-07-03T09:27:25.277Z,32.09
2018-07-03T09:28:25.175Z,31.04
2018-07-03T09:29:25.131Z,31.40
2018-07-03T09:30:25.095Z,31.54
2018-07-03T09:31:24.995Z,30.98
2018-07-03T09:32:24.931Z,30.21
2018-07-03T09:33:24.876Z,29.92
2018-07-03T09:34:24.819Z,30.25
2018-07-03T09:35:24.783Z,29.84
2018-07-03T09:36:24.738Z,30.45
2018-07-03T09:39:06.827Z,29.97
2018-07-03T09:40:07.768Z,29.64
2018-07-03T09:41:06.680Z,29.76
2018-07-03T09:42:06.619Z,30.26
2018-07-03T09:43:06.551Z,30.67
2018-07-03T09:44:06.517Z,30.91
2018-07-03T09:45:06.455Z,31.30
2018-07-03T09:47:48.340Z,31.41
2018-07-03T09:50:30.316Z,30.57
2018-07-03T09:51:30.258Z,30.45
2018-07-03T09:52:30.219Z,30.75
2018-07-03T09:53:30.120Z,30.79
2018-07-03T09:54:30.046Z,31.57
2018-07-03T09:56:54.832Z,32.58
2018-07-03T09:57:54.754Z,32.36
2018-07-03T09:58:54.687Z,32.93
2018-07-03T09:59:54.614Z,33.21
2018-07-03T10:00:54.573Z,33.35
2018-07-03T10:01:54.513Z,33.22
2018-07-03T10:02:54.446Z,32.90
2018-07-03T10:03:54.371Z,32.72
2018-07-03T10:04:54.311Z,33.14
2018-07-03T10:05:54.254Z,33.59
2018-07-03T10:06:54.191Z,33.79
2018-07-03T10:07:54.117Z,33.90
2018-07-03T10:08:54.061Z,33.93
2018-07-03T10:09:53.996Z,34.21
2018-07-03T10:10:53.949Z,34.49
2018-07-03T10:11:53.857Z,33.49
2018-07-03T10:12:53.791Z,33.71
2018-07-03T10:13:53.742Z,33.18
2018-07-03T10:14:53.685Z,33.75
2018-07-03T10:15:53.642Z,33.89
2018-07-03T10:16:53.536Z,33.92
2018-07-03T10:17:53.473Z,33.86
2018-07-03T10:20:35.312Z,34.14
2018-07-03T10:21:35.276Z,33.93
2018-07-03T10:22:35.201Z,33.78
2018-07-03T10:23:35.146Z,33.65
2018-07-03T10:24:35.070Z,33.62
2018-07-03T10:27:17.339Z,33.82
2018-07-03T10:28:17.284Z,33.72
2018-07-03T10:29:17.201Z,34.37
2018-07-03T10:30:17.146Z,34.69
2018-07-03T10:31:17.098Z,34.33
2018-07-03T10:32:17.014Z,34.65
2018-07-03T10:33:16.999Z,34.63
2018-07-03T10:34:16.906Z,34.23
2018-07-03T10:35:16.852Z,33.86
2018-07-03T10:36:17.798Z,33.34
2018-07-03T10:37:16.749Z,33.86
2018-07-03T10:38:16.695Z,34.31
2018-07-03T10:39:16.601Z,34.58
2018-07-03T10:41:58.824Z,33.78
2018-07-03T10:42:58.775Z,33.21
2018-07-03T10:43:58.791Z,33.15
2018-07-03T11:10:20.496Z,34.19
2018-07-03T11:11:20.423Z,34.09
2018-07-03T11:12:20.359Z,34.27
2018-07-03T11:13:20.313Z,33.89
2018-07-03T11:14:20.233Z,33.45
2018-07-03T11:15:20.201Z,33.03
2018-07-03T11:16:20.156Z,33.24
2018-07-03T11:19:02.354Z,33.74
2018-07-03T11:20:03.329Z,34.16
2018-07-03T11:21:02.518Z,33.99
2018-07-03T11:23:44.517Z,33.63
2018-07-03T11:24:46.339Z,33.65
2018-07-03T11:25:44.237Z,33.94
2018-07-03T11:26:44.299Z,33.63
2018-07-03T11:27:44.103Z,33.49
2018-07-03T11:28:44.145Z,33.93
2018-07-03T11:29:44.003Z,33.72
2018-07-03T11:30:45.389Z,33.18
2018-07-03T11:31:43.869Z,33.84
2018-07-03T11:34:25.849Z,33.56
2018-07-03T11:37:07.903Z,34.26
2018-07-03T11:38:07.793Z,33.94
2018-07-03T11:39:07.741Z,34.14
2018-07-03T11:40:07.676Z,33.78
2018-07-03T11:41:07.629Z,33.45
2018-07-03T11:42:07.589Z,33.11
2018-07-03T11:43:07.474Z,33.03
2018-07-03T11:44:07.423Z,32.93
2018-07-03T11:45:07.366Z,33.28
2018-07-03T11:46:07.307Z,31.87
2018-07-03T11:47:07.259Z,31.35
2018-07-03T11:48:07.188Z,31.41
2018-07-03T11:49:07.131Z,31.54
2018-07-03T11:50:07.070Z,31.91
2018-07-03T11:51:07.002Z,32.06
2018-07-03T11:52:06.979Z,32.50
2018-07-03T11:53:06.884Z,32.73
2018-07-03T11:55:48.893Z,32.62
2018-07-03T11:56:48.804Z,32.63
2018-07-03T11:57:48.762Z,33.07
2018-07-03T11:58:48.691Z,33.20
2018-07-03T11:59:48.607Z,33.29
2018-07-03T12:02:30.872Z,32.36
2018-07-03T12:05:12.855Z,32.35
2018-07-03T12:06:12.819Z,31.71
2018-07-03T12:07:12.735Z,31.87
2018-07-03T12:08:12.801Z,32.27
2018-07-03T12:09:12.608Z,32.19
2018-07-03T12:10:12.531Z,32.61
2018-07-03T12:11:12.469Z,32.34
2018-07-03T12:12:12.425Z,32.22
2018-07-03T12:13:12.361Z,31.49
2018-07-03T12:14:12.306Z,31.30
2018-07-03T12:15:12.217Z,31.19
2018-07-03T12:16:12.127Z,30.91
2018-07-03T12:17:12.057Z,30.93
2018-07-03T12:18:11.990Z,30.78
2018-07-03T12:19:11.934Z,30.66
2018-07-03T12:20:11.865Z,30.54
2018-07-03T12:21:11.789Z,30.26
2018-07-03T12:22:11.845Z,29.74
2018-07-03T12:23:11.655Z,29.81
2018-07-03T12:24:11.600Z,29.95
2018-07-03T12:25:11.504Z,30.25
2018-07-03T12:27:53.372Z,30.34
2018-07-03T12:28:54.331Z,30.44
2018-07-03T12:29:53.237Z,30.56
2018-07-03T12:30:53.159Z,30.63
2018-07-03T12:31:53.089Z,30.73
2018-07-03T12:32:53.021Z,30.61
2018-07-03T12:33:52.976Z,30.75
2018-07-03T12:34:52.891Z,30.61
2018-07-03T12:35:52.816Z,30.59
2018-07-03T12:38:34.858Z,30.36
2018-07-03T12:39:34.829Z,30.44
2018-07-03T12:40:34.743Z,30.46
2018-07-03T12:41:34.674Z,30.51
2018-07-03T12:42:34.600Z,30.48
2018-07-03T12:43:34.532Z,30.79
2018-07-03T12:44:34.521Z,30.93
2018-07-03T12:45:34.382Z,31.13
2018-07-03T12:46:34.318Z,31.10
2018-07-03T12:49:16.408Z,30.70
2018-07-03T12:51:58.373Z,30.30
2018-07-03T12:52:58.316Z,30.21
2018-07-03T12:53:58.238Z,30.21
2018-07-03T12:54:59.199Z,30.15
2018-07-03T12:55:58.114Z,30.01
2018-07-03T12:56:58.015Z,29.94
2018-07-03T12:57:57.949Z,30.07
2018-07-03T12:58:57.885Z,30.42
2018-07-03T12:59:57.833Z,30.64
2018-07-03T13:00:57.742Z,30.81
2018-07-03T13:01:57.654Z,30.86
2018-07-03T13:02:57.588Z,31.12
2018-07-03T13:03:57.522Z,31.23
2018-07-03T13:04:57.650Z,31.52
2018-07-03T13:05:57.379Z,31.62
2018-07-03T13:06:57.325Z,31.60
2018-07-03T13:07:57.266Z,31.62
2018-07-03T13:08:57.215Z,31.64
2018-07-03T13:09:57.105Z,31.62
2018-07-03T13:10:57.069Z,31.40
2018-07-03T13:11:56.961Z,31.13
2018-07-03T13:12:56.894Z,30.97
2018-07-03T13:13:56.807Z,30.81
2018-07-03T13:16:38.914Z,30.60
2018-07-03T13:17:38.841Z,30.44
2018-07-03T13:18:38.757Z,30.42
2018-07-03T13:19:38.673Z,30.51
2018-07-03T13:20:38.602Z,30.59
2018-07-03T13:21:38.661Z,30.78
2018-07-03T13:22:38.538Z,30.98
2018-07-03T13:23:38.394Z,31.09
2018-07-03T13:24:38.324Z,31.16
2018-07-03T13:25:38.285Z,31.28
2018-07-03T13:26:38.215Z,31.40
2018-07-03T13:27:38.134Z,31.46
2018-07-03T13:28:38.037Z,31.59
2018-07-03T13:29:37.974Z,31.67
2018-07-03T13:30:37.944Z,31.74
2018-07-03T13:31:37.903Z,31.78
2018-07-03T13:32:37.765Z,31.71
2018-07-03T13:35:19.927Z,31.49
2018-07-03T13:36:19.831Z,31.53
2018-07-03T13:37:19.741Z,31.54
2018-07-03T13:38:19.679Z,31.46
2018-07-03T13:39:19.608Z,31.45
2018-07-03T13:40:19.708Z,31.46
2018-07-03T13:41:19.499Z,31.41
2018-07-03T13:42:19.410Z,31.49
2018-07-03T13:43:19.325Z,31.56
2018-07-03T13:44:19.288Z,31.25
2018-07-03T13:45:19.188Z,31.01
2018-07-03T13:46:19.146Z,31.19
2018-07-03T13:47:19.128Z,31.13
2018-07-03T13:48:19.046Z,31.28
2018-07-03T13:49:18.906Z,31.28
2018-07-03T13:52:00.918Z,31.30
2018-07-03T13:54:42.897Z,31.16
2018-07-03T13:57:24.917Z,31.00
2018-07-03T13:58:24.836Z,30.86
2018-07-03T13:59:24.755Z,30.61
2018-07-03T14:00:24.697Z,30.60
2018-07-03T14:01:24.612Z,30.42
2018-07-03T14:02:24.560Z,30.44
2018-07-03T14:03:24.457Z,30.56
2018-07-03T14:04:24.403Z,30.70
2018-07-03T14:05:24.321Z,30.60
2018-07-03T14:06:24.282Z,30.59
2018-07-03T14:07:24.210Z,30.59
2018-07-03T14:08:24.118Z,30.67
2018-07-03T14:09:24.044Z,30.53
2018-07-03T14:12:06.403Z,30.38
2018-07-03T14:13:06.484Z,30.45
2018-07-03T14:14:06.285Z,30.57
2018-07-03T14:15:06.206Z,30.68
2018-07-03T14:16:06.142Z,30.86
2018-07-03T14:17:06.068Z,30.85
2018-07-03T14:18:05.996Z,30.86
2018-07-03T14:20:47.919Z,30.82
2018-07-03T14:21:47.863Z,30.75
2018-07-03T14:22:47.803Z,30.59
2018-07-03T14:23:47.696Z,30.61
2018-07-03T14:24:47.632Z,30.61
2018-07-03T14:25:47.558Z,30.44
2018-07-03T14:26:47.489Z,30.63
2018-07-03T14:27:47.454Z,30.73
2018-07-03T14:28:47.445Z,30.75
2018-07-03T14:29:47.280Z,30.73
2018-07-03T14:30:47.212Z,30.70
2018-07-03T14:31:47.134Z,30.76
2018-07-03T14:32:47.116Z,30.81
2018-07-03T14:33:46.996Z,30.68
2018-07-03T14:34:46.915Z,30.57
2018-07-03T14:37:28.925Z,30.75
2018-07-03T14:38:28.888Z,30.72
2018-07-03T14:39:28.799Z,30.85
2018-07-03T14:40:28.726Z,30.91
2018-07-03T14:41:28.632Z,30.82
2018-07-03T14:44:10.948Z,30.96
2018-07-03T14:45:10.860Z,30.94
2018-07-03T14:46:10.781Z,30.88
2018-07-03T14:47:10.716Z,30.94
2018-07-03T14:48:10.667Z,30.91
2018-07-03T14:49:10.605Z,31.10
2018-07-03T14:50:10.526Z,31.09
2018-07-03T14:52:52.422Z,30.97
2018-07-03T14:53:52.404Z,30.88
2018-07-03T14:54:52.309Z,30.72
2018-07-03T14:57:34.440Z,30.98
2018-07-03T15:00:16.451Z,30.79
2018-07-03T15:02:58.431Z,30.73
2018-07-03T15:03:58.390Z,30.78
2018-07-03T15:04:58.292Z,30.82
2018-07-03T15:05:58.259Z,30.78
2018-07-03T15:06:58.172Z,30.76
2018-07-03T15:07:58.094Z,30.76
2018-07-03T15:08:58.016Z,30.79
2018-07-03T15:09:58.958Z,30.73
2018-07-03T15:10:57.875Z,30.72
2018-07-03T15:11:57.887Z,30.73
2018-07-03T15:12:57.726Z,30.75
2018-07-03T15:13:57.665Z,30.63
2018-07-03T15:14:57.661Z,30.59
2018-07-03T15:15:57.516Z,30.44
2018-07-03T15:16:57.428Z,30.56
2018-07-03T15:19:39.421Z,30.38
2018-07-03T15:20:39.400Z,30.40
2018-07-03T15:21:39.293Z,30.40
2018-07-03T15:22:39.231Z,30.46
2018-07-03T15:23:39.140Z,30.73
2018-07-03T15:24:39.086Z,30.60
2018-07-03T15:25:39.027Z,30.70
2018-07-03T15:26:38.931Z,30.75
2018-07-03T15:27:38.903Z,30.72
2018-07-03T15:30:21.018Z,30.49
2018-07-03T15:31:20.883Z,30.49
2018-07-03T15:32:20.790Z,30.51
2018-07-03T15:33:20.742Z,30.45
2018-07-03T15:34:20.647Z,30.42
2018-07-03T15:35:20.585Z,30.36
2018-07-03T15:36:20.517Z,30.34
2018-07-03T15:37:20.442Z,30.30
2018-07-03T15:38:20.372Z,30.38
2018-07-03T15:39:20.319Z,30.44
2018-07-03T15:40:20.241Z,30.45
2018-07-03T15:41:20.189Z,30.45
2018-07-03T15:42:20.113Z,30.46
2018-07-03T15:43:20.116Z,30.44
2018-07-03T15:44:19.932Z,30.54
2018-07-03T15:45:19.924Z,30.48
2018-07-03T15:46:19.814Z,30.56
2018-07-03T15:49:01.957Z,30.61
2018-07-03T15:50:01.894Z,30.68
2018-07-03T15:51:01.792Z,30.46
2018-07-03T15:52:01.749Z,30.54
2018-07-03T15:53:01.650Z,30.45
2018-07-03T15:54:01.604Z,30.51
2018-07-03T15:55:01.512Z,30.57
2018-07-03T15:56:01.456Z,30.64
2018-07-03T15:57:01.387Z,30.75
2018-07-03T15:58:01.321Z,30.76
2018-07-03T15:59:01.227Z,30.70
2018-07-03T16:00:01.287Z,30.72
2018-07-03T16:01:01.084Z,30.72
2018-07-03T16:02:01.094Z,30.73
2018-07-03T16:03:01.004Z,30.73
2018-07-03T16:04:00.908Z,30.72
2018-07-03T16:05:00.803Z,30.63
2018-07-03T16:06:00.748Z,30.45
2018-07-03T16:07:00.664Z,30.40
2018-07-03T16:08:00.623Z,30.40
2018-07-03T16:09:00.551Z,30.44